sensor_id;sensor_type;location;lat;lon;timestamp;temperature;humidity
20442;DHT22;10380;52.102;20.614;2022-07-04T00:01:10;19.10;99.90
20442;DHT22;10380;52.102;20.614;2022-07-04T00:03:38;19.00;99.90
20442;DHT22;10380;52.102;20.614;2022-07-04T00:06:08;19.00;99.90
20442;DHT22;10380;52.102;20.614;2022-07-04T00:08:37;19.00;99.90
20442;DHT22;10380;52.102;20.614;2022-07-04T00:11:06;19.00;99.90
20442;DHT22;10380;52.102;20.614;2022-07-04T00:13:34;19.00;99.90
20442;DHT22;10380;52.102;20.614;2022-07-04T00:16:01;19.00;99.90
20442;DHT22;10380;52.102;20.614;2022-07-04T00:18:30;19.00;99.90
20442;DHT22;10380;52.102;20.614;2022-07-04T00:20:57;18.90;99.90
20442;DHT22;10380;52.102;20.614;2022-07-04T00:23:25;18.90;99.90
20442;DHT22;10380;52.102;20.614;2022-07-04T00:25:54;18.90;99.90
20442;DHT22;10380;52.102;20.614;2022-07-04T00:28:28;18.90;99.90
20442;DHT22;10380;52.102;20.614;2022-07-04T00:30:56;18.90;99.90
20442;DHT22;10380;52.102;20.614;2022-07-04T00:33:26;18.90;99.90
20442;DHT22;10380;52.102;20.614;2022-07-04T00:35:53;18.90;99.90
20442;DHT22;10380;52.102;20.614;2022-07-04T00:38:22;18.90;99.90
20442;DHT22;10380;52.102;20.614;2022-07-04T00:40:50;18.90;99.90
20442;DHT22;10380;52.102;20.614;2022-07-04T00:43:25;18.80;99.90
20442;DHT22;10380;52.102;20.614;2022-07-04T00:45:53;18.80;99.90
20442;DHT22;10380;52.102;20.614;2022-07-04T00:48:21;18.70;99.90
20442;DHT22;10380;52.102;20.614;2022-07-04T00:50:49;18.70;99.90
20442;DHT22;10380;52.102;20.614;2022-07-04T00:53:17;18.60;99.90
20442;DHT22;10380;52.102;20.614;2022-07-04T00:55:45;18.60;99.90
20442;DHT22;10380;52.102;20.614;2022-07-04T00:58:14;18.60;99.90
20442;DHT22;10380;52.102;20.614;2022-07-04T01:00:47;18.50;99.90
20442;DHT22;10380;52.102;20.614;2022-07-04T01:03:15;18.50;99.90
20442;DHT22;10380;52.102;20.614;2022-07-04T01:05:42;18.50;99.90
20442;DHT22;10380;52.102;20.614;2022-07-04T01:08:11;18.50;99.90
20442;DHT22;10380;52.102;20.614;2022-07-04T01:10:38;18.50;99.90
20442;DHT22;10380;52.102;20.614;2022-07-04T01:13:21;18.50;99.90
20442;DHT22;10380;52.102;20.614;2022-07-04T01:15:48;18.40;99.90
20442;DHT22;10380;52.102;20.614;2022-07-04T01:18:17;18.40;99.90
20442;DHT22;10380;52.102;20.614;2022-07-04T01:20:46;18.40;99.90
20442;DHT22;10380;52.102;20.614;2022-07-04T01:23:17;18.30;99.90
20442;DHT22;10380;52.102;20.614;2022-07-04T01:25:44;18.30;99.90
20442;DHT22;10380;52.102;20.614;2022-07-04T01:28:24;18.30;99.90
20442;DHT22;10380;52.102;20.614;2022-07-04T01:30:52;18.30;99.90
20442;DHT22;10380;52.102;20.614;2022-07-04T01:33:22;18.20;99.90
20442;DHT22;10380;52.102;20.614;2022-07-04T01:35:49;18.30;99.90
20442;DHT22;10380;52.102;20.614;2022-07-04T01:38:18;18.20;99.90
20442;DHT22;10380;52.102;20.614;2022-07-04T01:40:51;18.20;99.90
20442;DHT22;10380;52.102;20.614;2022-07-04T01:43:18;18.10;99.90
20442;DHT22;10380;52.102;20.614;2022-07-04T01:45:46;18.10;99.90
20442;DHT22;10380;52.102;20.614;2022-07-04T01:48:15;18.10;99.90
20442;DHT22;10380;52.102;20.614;2022-07-04T01:50:42;18.10;99.90
20442;DHT22;10380;52.102;20.614;2022-07-04T01:53:09;18.10;99.90
20442;DHT22;10380;52.102;20.614;2022-07-04T01:55:38;18.00;99.90
20442;DHT22;10380;52.102;20.614;2022-07-04T01:58:05;18.00;99.90
20442;DHT22;10380;52.102;20.614;2022-07-04T02:00:32;18.00;99.90
20442;DHT22;10380;52.102;20.614;2022-07-04T02:03:18;17.90;99.90
20442;DHT22;10380;52.102;20.614;2022-07-04T02:05:45;17.90;99.90
20442;DHT22;10380;52.102;20.614;2022-07-04T02:08:12;17.90;99.90
20442;DHT22;10380;52.102;20.614;2022-07-04T02:10:39;17.80;99.90
20442;DHT22;10380;52.102;20.614;2022-07-04T02:13:06;17.80;99.90
20442;DHT22;10380;52.102;20.614;2022-07-04T02:15:40;17.80;99.90
20442;DHT22;10380;52.102;20.614;2022-07-04T02:18:09;17.80;99.90
20442;DHT22;10380;52.102;20.614;2022-07-04T02:20:37;17.80;99.90
20442;DHT22;10380;52.102;20.614;2022-07-04T02:23:05;17.80;99.90
20442;DHT22;10380;52.102;20.614;2022-07-04T02:25:33;17.80;99.90
20442;DHT22;10380;52.102;20.614;2022-07-04T02:28:01;17.80;99.90
20442;DHT22;10380;52.102;20.614;2022-07-04T02:30:28;17.80;99.90
20442;DHT22;10380;52.102;20.614;2022-07-04T02:32:55;17.80;99.90
20442;DHT22;10380;52.102;20.614;2022-07-04T02:35:22;17.80;99.90
20442;DHT22;10380;52.102;20.614;2022-07-04T02:37:50;17.80;99.90
20442;DHT22;10380;52.102;20.614;2022-07-04T02:40:17;17.70;99.90
20442;DHT22;10380;52.102;20.614;2022-07-04T02:42:44;17.70;99.90
20442;DHT22;10380;52.102;20.614;2022-07-04T02:45:11;17.70;99.90
20442;DHT22;10380;52.102;20.614;2022-07-04T02:47:38;17.70;99.90
20442;DHT22;10380;52.102;20.614;2022-07-04T02:50:07;17.70;99.90
20442;DHT22;10380;52.102;20.614;2022-07-04T02:52:36;17.80;99.90
20442;DHT22;10380;52.102;20.614;2022-07-04T02:55:03;17.80;99.90
20442;DHT22;10380;52.102;20.614;2022-07-04T02:57:31;17.80;99.90
20442;DHT22;10380;52.102;20.614;2022-07-04T02:59:58;17.80;99.90
20442;DHT22;10380;52.102;20.614;2022-07-04T03:02:26;17.80;99.90
20442;DHT22;10380;52.102;20.614;2022-07-04T03:04:55;17.90;99.90
20442;DHT22;10380;52.102;20.614;2022-07-04T03:07:22;17.90;99.90
20442;DHT22;10380;52.102;20.614;2022-07-04T03:09:49;17.90;99.90
20442;DHT22;10380;52.102;20.614;2022-07-04T03:12:16;17.90;99.90
20442;DHT22;10380;52.102;20.614;2022-07-04T03:14:45;17.90;99.90
20442;DHT22;10380;52.102;20.614;2022-07-04T03:17:19;17.90;99.90
20442;DHT22;10380;52.102;20.614;2022-07-04T03:19:46;17.90;99.90
20442;DHT22;10380;52.102;20.614;2022-07-04T03:22:15;17.90;99.90
20442;DHT22;10380;52.102;20.614;2022-07-04T03:24:44;17.90;99.90
20442;DHT22;10380;52.102;20.614;2022-07-04T03:27:15;17.90;99.90
20442;DHT22;10380;52.102;20.614;2022-07-04T03:29:42;18.00;99.90
20442;DHT22;10380;52.102;20.614;2022-07-04T03:32:14;18.00;99.90
20442;DHT22;10380;52.102;20.614;2022-07-04T03:34:41;18.00;99.90
20442;DHT22;10380;52.102;20.614;2022-07-04T03:37:08;18.00;99.90
20442;DHT22;10380;52.102;20.614;2022-07-04T03:39:36;18.00;99.90
20442;DHT22;10380;52.102;20.614;2022-07-04T03:42:10;18.00;99.90
20442;DHT22;10380;52.102;20.614;2022-07-04T03:44:37;18.00;99.90
20442;DHT22;10380;52.102;20.614;2022-07-04T03:47:04;18.00;99.90
20442;DHT22;10380;52.102;20.614;2022-07-04T03:49:50;18.10;99.90
20442;DHT22;10380;52.102;20.614;2022-07-04T03:52:20;18.20;99.90
20442;DHT22;10380;52.102;20.614;2022-07-04T03:54:47;18.20;99.90
20442;DHT22;10380;52.102;20.614;2022-07-04T03:57:14;18.30;99.90
20442;DHT22;10380;52.102;20.614;2022-07-04T03:59:41;18.40;99.90
20442;DHT22;10380;52.102;20.614;2022-07-04T04:02:15;18.40;99.90
20442;DHT22;10380;52.102;20.614;2022-07-04T04:04:42;18.50;99.90
20442;DHT22;10380;52.102;20.614;2022-07-04T04:07:39;18.50;99.90
20442;DHT22;10380;52.102;20.614;2022-07-04T04:10:06;18.60;99.90
20442;DHT22;10380;52.102;20.614;2022-07-04T04:12:34;18.70;99.90
20442;DHT22;10380;52.102;20.614;2022-07-04T04:15:00;18.80;99.90
20442;DHT22;10380;52.102;20.614;2022-07-04T04:17:35;18.90;99.90
20442;DHT22;10380;52.102;20.614;2022-07-04T04:20:02;19.00;99.90
20442;DHT22;10380;52.102;20.614;2022-07-04T04:22:30;19.10;99.90
20442;DHT22;10380;52.102;20.614;2022-07-04T04:24:57;19.20;99.90
20442;DHT22;10380;52.102;20.614;2022-07-04T04:27:24;19.20;99.90
20442;DHT22;10380;52.102;20.614;2022-07-04T04:29:51;19.40;99.90
20442;DHT22;10380;52.102;20.614;2022-07-04T04:32:25;19.40;99.90
20442;DHT22;10380;52.102;20.614;2022-07-04T04:34:53;19.50;99.90
20442;DHT22;10380;52.102;20.614;2022-07-04T04:37:23;19.60;99.90
20442;DHT22;10380;52.102;20.614;2022-07-04T04:39:50;19.60;99.90
20442;DHT22;10380;52.102;20.614;2022-07-04T04:42:17;19.70;99.90
20442;DHT22;10380;52.102;20.614;2022-07-04T04:44:45;19.80;99.90
20442;DHT22;10380;52.102;20.614;2022-07-04T04:47:13;19.90;99.90
20442;DHT22;10380;52.102;20.614;2022-07-04T04:49:40;20.00;99.90
20442;DHT22;10380;52.102;20.614;2022-07-04T04:52:08;20.10;99.90
20442;DHT22;10380;52.102;20.614;2022-07-04T04:54:41;20.10;99.90
20442;DHT22;10380;52.102;20.614;2022-07-04T04:57:11;20.20;99.90
20442;DHT22;10380;52.102;20.614;2022-07-04T04:59:38;20.30;99.90
20442;DHT22;10380;52.102;20.614;2022-07-04T05:02:05;20.50;99.90
20442;DHT22;10380;52.102;20.614;2022-07-04T05:04:32;20.60;99.90
20442;DHT22;10380;52.102;20.614;2022-07-04T05:06:59;20.60;99.90
20442;DHT22;10380;52.102;20.614;2022-07-04T05:09:26;20.70;99.90
20442;DHT22;10380;52.102;20.614;2022-07-04T05:11:54;20.80;99.90
20442;DHT22;10380;52.102;20.614;2022-07-04T05:14:22;20.80;99.90
20442;DHT22;10380;52.102;20.614;2022-07-04T05:16:49;20.90;99.90
20442;DHT22;10380;52.102;20.614;2022-07-04T05:19:17;20.90;99.90
20442;DHT22;10380;52.102;20.614;2022-07-04T05:21:45;21.00;99.90
20442;DHT22;10380;52.102;20.614;2022-07-04T05:24:11;21.10;99.90
20442;DHT22;10380;52.102;20.614;2022-07-04T05:26:39;21.20;99.90
20442;DHT22;10380;52.102;20.614;2022-07-04T05:29:06;21.30;99.90
20442;DHT22;10380;52.102;20.614;2022-07-04T05:31:33;21.40;99.90
20442;DHT22;10380;52.102;20.614;2022-07-04T05:34:00;21.40;99.90
20442;DHT22;10380;52.102;20.614;2022-07-04T05:36:29;21.50;99.90
20442;DHT22;10380;52.102;20.614;2022-07-04T05:38:57;21.50;99.90
20442;DHT22;10380;52.102;20.614;2022-07-04T05:41:24;21.60;99.90
20442;DHT22;10380;52.102;20.614;2022-07-04T05:43:51;21.70;99.90
20442;DHT22;10380;52.102;20.614;2022-07-04T05:46:24;21.70;99.90
20442;DHT22;10380;52.102;20.614;2022-07-04T05:48:51;21.80;99.90
20442;DHT22;10380;52.102;20.614;2022-07-04T05:51:18;21.90;99.90
20442;DHT22;10380;52.102;20.614;2022-07-04T05:53:45;21.90;99.90
20442;DHT22;10380;52.102;20.614;2022-07-04T05:56:11;22.00;99.90
20442;DHT22;10380;52.102;20.614;2022-07-04T05:58:38;22.10;99.90
20442;DHT22;10380;52.102;20.614;2022-07-04T06:01:05;22.20;99.90
20442;DHT22;10380;52.102;20.614;2022-07-04T06:03:34;22.20;99.90
20442;DHT22;10380;52.102;20.614;2022-07-04T06:06:04;22.40;99.90
20442;DHT22;10380;52.102;20.614;2022-07-04T06:08:31;22.40;99.90
20442;DHT22;10380;52.102;20.614;2022-07-04T06:10:57;22.50;99.90
20442;DHT22;10380;52.102;20.614;2022-07-04T06:13:25;22.60;99.90
20442;DHT22;10380;52.102;20.614;2022-07-04T06:15:52;22.60;99.90
20442;DHT22;10380;52.102;20.614;2022-07-04T06:18:18;22.70;99.90
20442;DHT22;10380;52.102;20.614;2022-07-04T06:20:45;22.80;99.90
20442;DHT22;10380;52.102;20.614;2022-07-04T06:23:12;22.90;99.90
20442;DHT22;10380;52.102;20.614;2022-07-04T06:25:39;23.00;99.90
20442;DHT22;10380;52.102;20.614;2022-07-04T06:28:06;23.00;99.90
20442;DHT22;10380;52.102;20.614;2022-07-04T06:30:33;23.10;99.90
20442;DHT22;10380;52.102;20.614;2022-07-04T06:33:00;23.20;99.90
20442;DHT22;10380;52.102;20.614;2022-07-04T06:35:31;23.30;99.90
20442;DHT22;10380;52.102;20.614;2022-07-04T06:38:17;23.30;99.90
20442;DHT22;10380;52.102;20.614;2022-07-04T06:40:45;23.40;99.90
20442;DHT22;10380;52.102;20.614;2022-07-04T06:43:12;23.50;99.90
20442;DHT22;10380;52.102;20.614;2022-07-04T06:45:39;23.50;99.90
20442;DHT22;10380;52.102;20.614;2022-07-04T06:48:07;23.60;99.90
20442;DHT22;10380;52.102;20.614;2022-07-04T06:50:34;23.60;99.90
20442;DHT22;10380;52.102;20.614;2022-07-04T06:53:07;23.70;99.90
20442;DHT22;10380;52.102;20.614;2022-07-04T06:55:39;23.70;99.90
20442;DHT22;10380;52.102;20.614;2022-07-04T06:58:07;23.80;99.90
20442;DHT22;10380;52.102;20.614;2022-07-04T07:00:36;23.90;99.90
20442;DHT22;10380;52.102;20.614;2022-07-04T07:03:03;24.00;99.90
20442;DHT22;10380;52.102;20.614;2022-07-04T07:05:31;24.10;99.90
20442;DHT22;10380;52.102;20.614;2022-07-04T07:08:18;24.20;99.90
20442;DHT22;10380;52.102;20.614;2022-07-04T07:10:45;24.30;99.90
20442;DHT22;10380;52.102;20.614;2022-07-04T07:13:12;24.30;99.90
20442;DHT22;10380;52.102;20.614;2022-07-04T07:15:40;24.40;99.90
20442;DHT22;10380;52.102;20.614;2022-07-04T07:18:07;24.50;99.90
20442;DHT22;10380;52.102;20.614;2022-07-04T07:20:34;24.60;99.90
20442;DHT22;10380;52.102;20.614;2022-07-04T07:23:05;24.70;99.90
20442;DHT22;10380;52.102;20.614;2022-07-04T07:25:32;24.80;99.90
20442;DHT22;10380;52.102;20.614;2022-07-04T07:27:59;24.80;99.90
20442;DHT22;10380;52.102;20.614;2022-07-04T07:30:26;24.80;99.90
20442;DHT22;10380;52.102;20.614;2022-07-04T07:32:53;24.80;99.90
20442;DHT22;10380;52.102;20.614;2022-07-04T07:35:20;24.90;99.90
20442;DHT22;10380;52.102;20.614;2022-07-04T07:37:48;24.90;99.90
20442;DHT22;10380;52.102;20.614;2022-07-04T07:40:15;25.00;99.90
20442;DHT22;10380;52.102;20.614;2022-07-04T07:42:42;25.00;99.90
20442;DHT22;10380;52.102;20.614;2022-07-04T07:45:09;24.90;99.90
20442;DHT22;10380;52.102;20.614;2022-07-04T07:47:36;24.90;99.90
20442;DHT22;10380;52.102;20.614;2022-07-04T07:50:03;24.80;99.90
20442;DHT22;10380;52.102;20.614;2022-07-04T07:52:30;24.80;99.90
20442;DHT22;10380;52.102;20.614;2022-07-04T07:54:58;24.80;99.90
20442;DHT22;10380;52.102;20.614;2022-07-04T07:57:27;24.90;99.90
20442;DHT22;10380;52.102;20.614;2022-07-04T07:59:55;25.00;99.90
20442;DHT22;10380;52.102;20.614;2022-07-04T08:02:22;25.10;99.90
20442;DHT22;10380;52.102;20.614;2022-07-04T08:05:10;25.20;99.90
20442;DHT22;10380;52.102;20.614;2022-07-04T08:07:37;25.20;99.90
20442;DHT22;10380;52.102;20.614;2022-07-04T08:10:05;25.20;99.90
20442;DHT22;10380;52.102;20.614;2022-07-04T08:12:33;25.20;99.90
20442;DHT22;10380;52.102;20.614;2022-07-04T08:15:00;25.30;99.90
20442;DHT22;10380;52.102;20.614;2022-07-04T08:17:33;25.50;99.90
20442;DHT22;10380;52.102;20.614;2022-07-04T08:20:02;25.60;99.90
20442;DHT22;10380;52.102;20.614;2022-07-04T08:22:30;25.70;99.90
20442;DHT22;10380;52.102;20.614;2022-07-04T08:24:57;25.90;99.90
20442;DHT22;10380;52.102;20.614;2022-07-04T08:27:26;26.00;99.90
20442;DHT22;10380;52.102;20.614;2022-07-04T08:30:02;26.10;99.90
20442;DHT22;10380;52.102;20.614;2022-07-04T08:32:30;26.20;99.90
20442;DHT22;10380;52.102;20.614;2022-07-04T08:34:57;26.20;99.90
20442;DHT22;10380;52.102;20.614;2022-07-04T08:37:26;26.30;99.90
20442;DHT22;10380;52.102;20.614;2022-07-04T08:39:52;26.40;99.90
20442;DHT22;10380;52.102;20.614;2022-07-04T08:42:21;26.50;99.90
20442;DHT22;10380;52.102;20.614;2022-07-04T08:44:51;26.60;99.90
20442;DHT22;10380;52.102;20.614;2022-07-04T08:47:23;26.80;99.90
20442;DHT22;10380;52.102;20.614;2022-07-04T08:52:36;26.90;99.90
20442;DHT22;10380;52.102;20.614;2022-07-04T08:55:05;26.90;99.90
20442;DHT22;10380;52.102;20.614;2022-07-04T08:57:53;27.00;99.90
20442;DHT22;10380;52.102;20.614;2022-07-04T09:00:40;27.00;99.90
20442;DHT22;10380;52.102;20.614;2022-07-04T09:03:08;27.00;99.90
20442;DHT22;10380;52.102;20.614;2022-07-04T09:05:39;27.00;99.90
20442;DHT22;10380;52.102;20.614;2022-07-04T09:08:06;27.00;99.90
20442;DHT22;10380;52.102;20.614;2022-07-04T09:10:34;27.00;99.90
20442;DHT22;10380;52.102;20.614;2022-07-04T09:13:04;26.90;99.90
20442;DHT22;10380;52.102;20.614;2022-07-04T09:15:41;26.90;99.90
20442;DHT22;10380;52.102;20.614;2022-07-04T09:18:31;26.90;99.90
20442;DHT22;10380;52.102;20.614;2022-07-04T09:21:04;26.80;99.90
20442;DHT22;10380;52.102;20.614;2022-07-04T09:23:36;26.80;99.90
20442;DHT22;10380;52.102;20.614;2022-07-04T09:26:21;26.80;99.90
20442;DHT22;10380;52.102;20.614;2022-07-04T09:28:52;26.80;99.90
20442;DHT22;10380;52.102;20.614;2022-07-04T09:31:30;26.90;99.90
20442;DHT22;10380;52.102;20.614;2022-07-04T09:34:02;26.90;99.90
20442;DHT22;10380;52.102;20.614;2022-07-04T09:36:44;26.90;99.90
20442;DHT22;10380;52.102;20.614;2022-07-04T09:39:16;27.00;99.90
20442;DHT22;10380;52.102;20.614;2022-07-04T09:41:55;27.10;99.90
20442;DHT22;10380;52.102;20.614;2022-07-04T09:44:24;27.20;99.90
20442;DHT22;10380;52.102;20.614;2022-07-04T09:46:52;27.30;99.90
20442;DHT22;10380;52.102;20.614;2022-07-04T09:49:19;27.40;99.90
20442;DHT22;10380;52.102;20.614;2022-07-04T09:51:53;27.40;99.90
20442;DHT22;10380;52.102;20.614;2022-07-04T09:54:26;27.50;99.90
20442;DHT22;10380;52.102;20.614;2022-07-04T09:57:00;27.60;99.90
20442;DHT22;10380;52.102;20.614;2022-07-04T09:59:28;27.70;99.90
20442;DHT22;10380;52.102;20.614;2022-07-04T10:07:30;27.80;99.90
20442;DHT22;10380;52.102;20.614;2022-07-04T10:09:57;27.80;99.90
20442;DHT22;10380;52.102;20.614;2022-07-04T10:12:28;27.90;99.90
20442;DHT22;10380;52.102;20.614;2022-07-04T10:14:56;28.00;99.90
20442;DHT22;10380;52.102;20.614;2022-07-04T10:17:25;28.20;99.90
20442;DHT22;10380;52.102;20.614;2022-07-04T10:19:53;28.30;99.90
20442;DHT22;10380;52.102;20.614;2022-07-04T10:22:21;28.30;99.90
20442;DHT22;10380;52.102;20.614;2022-07-04T10:24:49;28.30;99.90
20442;DHT22;10380;52.102;20.614;2022-07-04T10:27:17;28.40;99.90
20442;DHT22;10380;52.102;20.614;2022-07-04T10:29:44;28.50;99.90
20442;DHT22;10380;52.102;20.614;2022-07-04T10:32:12;28.50;99.90
20442;DHT22;10380;52.102;20.614;2022-07-04T10:34:40;28.50;99.90
20442;DHT22;10380;52.102;20.614;2022-07-04T10:37:08;28.60;99.90
20442;DHT22;10380;52.102;20.614;2022-07-04T10:39:36;28.70;99.90
20442;DHT22;10380;52.102;20.614;2022-07-04T10:42:06;28.80;99.90
20442;DHT22;10380;52.102;20.614;2022-07-04T10:44:33;28.90;99.90
20442;DHT22;10380;52.102;20.614;2022-07-04T10:47:04;29.20;99.90
20442;DHT22;10380;52.102;20.614;2022-07-04T10:49:34;29.40;99.90
20442;DHT22;10380;52.102;20.614;2022-07-04T10:52:11;29.50;99.90
20442;DHT22;10380;52.102;20.614;2022-07-04T10:54:41;29.60;99.90
20442;DHT22;10380;52.102;20.614;2022-07-04T10:57:15;29.40;99.90
20442;DHT22;10380;52.102;20.614;2022-07-04T11:00:06;29.20;99.90
20442;DHT22;10380;52.102;20.614;2022-07-04T11:02:36;29.10;99.90
20442;DHT22;10380;52.102;20.614;2022-07-04T11:05:08;28.90;99.90
20442;DHT22;10380;52.102;20.614;2022-07-04T11:18:09;29.00;99.90
20442;DHT22;10380;52.102;20.614;2022-07-04T11:20:37;29.20;99.90
20442;DHT22;10380;52.102;20.614;2022-07-04T11:23:12;29.20;99.90
20442;DHT22;10380;52.102;20.614;2022-07-04T11:25:43;29.20;99.90
20442;DHT22;10380;52.102;20.614;2022-07-04T11:28:30;29.30;99.90
20442;DHT22;10380;52.102;20.614;2022-07-04T11:31:09;29.40;99.90
20442;DHT22;10380;52.102;20.614;2022-07-04T11:33:38;29.40;99.90
20442;DHT22;10380;52.102;20.614;2022-07-04T11:36:10;29.40;99.90
20442;DHT22;10380;52.102;20.614;2022-07-04T11:41:31;29.50;99.90
20442;DHT22;10380;52.102;20.614;2022-07-04T11:44:22;29.70;99.90
20442;DHT22;10380;52.102;20.614;2022-07-04T11:47:16;30.00;99.90
20442;DHT22;10380;52.102;20.614;2022-07-04T11:49:52;30.10;99.90
20442;DHT22;10380;52.102;20.614;2022-07-04T11:52:21;30.30;99.90
20442;DHT22;10380;52.102;20.614;2022-07-04T11:55:11;30.40;99.90
20442;DHT22;10380;52.102;20.614;2022-07-04T11:57:41;30.60;99.90
20442;DHT22;10380;52.102;20.614;2022-07-04T12:00:15;30.70;99.90
20442;DHT22;10380;52.102;20.614;2022-07-04T12:02:47;30.90;99.90
20442;DHT22;10380;52.102;20.614;2022-07-04T12:05:16;31.00;99.90
20442;DHT22;10380;52.102;20.614;2022-07-04T12:07:45;31.20;99.90
20442;DHT22;10380;52.102;20.614;2022-07-04T12:10:33;31.40;99.90
20442;DHT22;10380;52.102;20.614;2022-07-04T12:13:06;31.60;99.90
20442;DHT22;10380;52.102;20.614;2022-07-04T12:15:43;31.70;99.90
20442;DHT22;10380;52.102;20.614;2022-07-04T12:18:20;31.80;99.90
20442;DHT22;10380;52.102;20.614;2022-07-04T12:20:52;31.80;99.90
20442;DHT22;10380;52.102;20.614;2022-07-04T12:23:21;31.80;99.90
20442;DHT22;10380;52.102;20.614;2022-07-04T12:25:50;31.70;99.90
20442;DHT22;10380;52.102;20.614;2022-07-04T12:28:18;31.50;99.90
20442;DHT22;10380;52.102;20.614;2022-07-04T12:33:22;31.20;99.90
20442;DHT22;10380;52.102;20.614;2022-07-04T12:35:52;31.00;99.90
20442;DHT22;10380;52.102;20.614;2022-07-04T12:41:00;30.70;99.90
20442;DHT22;10380;52.102;20.614;2022-07-04T12:46:14;30.40;99.90
20442;DHT22;10380;52.102;20.614;2022-07-04T12:48:42;30.10;99.90
20442;DHT22;10380;52.102;20.614;2022-07-04T12:51:20;30.00;99.90
20442;DHT22;10380;52.102;20.614;2022-07-04T12:53:49;30.10;99.90
20442;DHT22;10380;52.102;20.614;2022-07-04T12:58:57;30.20;99.90
20442;DHT22;10380;52.102;20.614;2022-07-04T13:01:25;30.20;99.90
20442;DHT22;10380;52.102;20.614;2022-07-04T13:03:53;30.40;99.90
20442;DHT22;10380;52.102;20.614;2022-07-04T13:06:20;31.10;99.90
20442;DHT22;10380;52.102;20.614;2022-07-04T13:08:47;32.20;99.90
20442;DHT22;10380;52.102;20.614;2022-07-04T13:11:16;33.30;99.90
20442;DHT22;10380;52.102;20.614;2022-07-04T13:14:01;34.40;99.90
20442;DHT22;10380;52.102;20.614;2022-07-04T13:16:30;35.50;98.70
20442;DHT22;10380;52.102;20.614;2022-07-04T13:19:03;36.40;97.10
20442;DHT22;10380;52.102;20.614;2022-07-04T13:21:30;37.10;95.60
20442;DHT22;10380;52.102;20.614;2022-07-04T13:23:57;37.90;94.10
20442;DHT22;10380;52.102;20.614;2022-07-04T13:26:24;38.70;93.00
20442;DHT22;10380;52.102;20.614;2022-07-04T13:28:51;39.70;91.70
20442;DHT22;10380;52.102;20.614;2022-07-04T13:31:18;40.70;89.40
20442;DHT22;10380;52.102;20.614;2022-07-04T13:33:45;41.40;85.40
20442;DHT22;10380;52.102;20.614;2022-07-04T13:36:12;41.70;81.50
20442;DHT22;10380;52.102;20.614;2022-07-04T13:38:41;41.70;78.80
20442;DHT22;10380;52.102;20.614;2022-07-04T13:41:31;41.90;77.30
20442;DHT22;10380;52.102;20.614;2022-07-04T13:44:00;42.10;76.20
20442;DHT22;10380;52.102;20.614;2022-07-04T13:46:27;42.40;74.90
20442;DHT22;10380;52.102;20.614;2022-07-04T13:48:54;42.80;73.50
20442;DHT22;10380;52.102;20.614;2022-07-04T13:51:22;42.80;69.50
20442;DHT22;10380;52.102;20.614;2022-07-04T13:53:49;43.00;68.00
20442;DHT22;10380;52.102;20.614;2022-07-04T13:56:17;42.90;67.30
20442;DHT22;10380;52.102;20.614;2022-07-04T13:58:45;42.80;66.10
20442;DHT22;10380;52.102;20.614;2022-07-04T14:01:13;42.60;66.30
20442;DHT22;10380;52.102;20.614;2022-07-04T14:03:42;41.80;65.80
20442;DHT22;10380;52.102;20.614;2022-07-04T14:06:09;41.40;67.90
20442;DHT22;10380;52.102;20.614;2022-07-04T14:08:37;41.20;67.50
20442;DHT22;10380;52.102;20.614;2022-07-04T14:11:04;40.90;68.30
20442;DHT22;10380;52.102;20.614;2022-07-04T14:13:31;40.80;68.30
20442;DHT22;10380;52.102;20.614;2022-07-04T14:15:59;40.80;68.00
20442;DHT22;10380;52.102;20.614;2022-07-04T14:18:27;40.90;68.60
20442;DHT22;10380;52.102;20.614;2022-07-04T14:20:53;40.90;67.30
20442;DHT22;10380;52.102;20.614;2022-07-04T14:23:20;40.60;67.10
20442;DHT22;10380;52.102;20.614;2022-07-04T14:26:16;40.10;66.80
20442;DHT22;10380;52.102;20.614;2022-07-04T14:28:43;39.30;67.80
20442;DHT22;10380;52.102;20.614;2022-07-04T14:31:12;38.20;69.00
20442;DHT22;10380;52.102;20.614;2022-07-04T14:33:39;37.20;70.60
20442;DHT22;10380;52.102;20.614;2022-07-04T14:36:07;36.20;71.70
20442;DHT22;10380;52.102;20.614;2022-07-04T14:38:35;35.30;73.60
20442;DHT22;10380;52.102;20.614;2022-07-04T14:41:03;34.60;75.80
20442;DHT22;10380;52.102;20.614;2022-07-04T14:43:43;34.00;77.60
20442;DHT22;10380;52.102;20.614;2022-07-04T14:46:10;33.40;79.00
20442;DHT22;10380;52.102;20.614;2022-07-04T14:48:38;32.90;80.10
20442;DHT22;10380;52.102;20.614;2022-07-04T14:51:05;32.40;81.60
20442;DHT22;10380;52.102;20.614;2022-07-04T14:53:33;31.90;82.70
20442;DHT22;10380;52.102;20.614;2022-07-04T14:56:00;31.50;83.70
20442;DHT22;10380;52.102;20.614;2022-07-04T14:58:27;31.10;84.50
20442;DHT22;10380;52.102;20.614;2022-07-04T15:00:54;30.90;85.50
20442;DHT22;10380;52.102;20.614;2022-07-04T15:03:21;30.70;85.90
20442;DHT22;10380;52.102;20.614;2022-07-04T15:05:49;30.50;86.90
20442;DHT22;10380;52.102;20.614;2022-07-04T15:08:17;30.50;88.10
20442;DHT22;10380;52.102;20.614;2022-07-04T15:10:44;30.60;87.60
20442;DHT22;10380;52.102;20.614;2022-07-04T15:13:27;30.80;87.70
20442;DHT22;10380;52.102;20.614;2022-07-04T15:15:55;31.20;87.70
20442;DHT22;10380;52.102;20.614;2022-07-04T15:18:43;31.70;87.70
20442;DHT22;10380;52.102;20.614;2022-07-04T15:21:10;32.30;85.50
20442;DHT22;10380;52.102;20.614;2022-07-04T15:23:56;32.60;84.70
20442;DHT22;10380;52.102;20.614;2022-07-04T15:26:41;32.70;84.80
20442;DHT22;10380;52.102;20.614;2022-07-04T15:29:09;32.60;85.40
20442;DHT22;10380;52.102;20.614;2022-07-04T15:31:40;32.50;85.50
20442;DHT22;10380;52.102;20.614;2022-07-04T15:34:07;32.40;86.50
20442;DHT22;10380;52.102;20.614;2022-07-04T15:36:35;32.30;86.40
20442;DHT22;10380;52.102;20.614;2022-07-04T15:39:09;32.20;86.00
20442;DHT22;10380;52.102;20.614;2022-07-04T15:41:37;31.90;85.70
20442;DHT22;10380;52.102;20.614;2022-07-04T15:44:05;31.60;86.60
20442;DHT22;10380;52.102;20.614;2022-07-04T15:46:33;31.30;87.40
20442;DHT22;10380;52.102;20.614;2022-07-04T15:49:04;31.00;88.60
20442;DHT22;10380;52.102;20.614;2022-07-04T15:51:42;30.90;88.90
20442;DHT22;10380;52.102;20.614;2022-07-04T15:54:11;30.80;89.50
20442;DHT22;10380;52.102;20.614;2022-07-04T15:56:38;30.70;90.10
20442;DHT22;10380;52.102;20.614;2022-07-04T15:59:05;30.60;90.30
20442;DHT22;10380;52.102;20.614;2022-07-04T16:01:32;30.50;90.40
20442;DHT22;10380;52.102;20.614;2022-07-04T16:04:00;30.40;90.50